Time;durP1;ratioP1;P1;durP2;ratioP2;P2;SDS_P1;SDS_P2;PMS_P1;PMS_P2;Temp;Humidity;BMP_temperature;BMP_pressure;BME280_temperature;BME280_humidity;BME280_pressure;Samples;Min_cycle;Max_cycle;Signal;HPM_P1;HPM_P2
2020/12/24 00:01:44;;;;;;;58.17;32.67;;;;;;;4.23;100.00;97286.34;5008133;28;20041;-61
2020/12/24 00:04:10;;;;;;;98.05;43.97;;;;;;;3.81;100.00;97241.38;5006501;28;20037;-60
2020/12/24 00:06:35;;;;;;;68.00;37.47;;;;;;;4.17;100.00;97299.41;5006538;28;20026;-60
2020/12/24 00:09:00;;;;;;;71.03;38.03;;;;;;;4.02;100.00;97297.16;5008357;28;20389;-62
2020/12/24 00:11:26;;;;;;;67.13;34.40;;;;;;;4.06;100.00;97308.28;5007879;28;20507;-60
2020/12/24 00:13:51;;;;;;;55.45;30.30;;;;;;;3.92;100.00;97305.69;5006556;28;20026;-60
2020/12/24 00:16:17;;;;;;;46.53;25.55;;;;;;;3.72;100.00;97292.59;5007829;28;20069;-59
2020/12/24 00:18:42;;;;;;;54.55;28.58;;;;;;;3.62;100.00;97265.53;5007949;28;20030;-60
2020/12/24 00:21:09;;;;;;;52.47;25.73;;;;;;;3.86;100.00;97287.78;5006365;28;20045;-59
2020/12/24 00:23:34;;;;;;;56.50;28.17;;;;;;;3.95;100.00;97274.09;5007885;28;20041;-61
2020/12/24 00:26:00;;;;;;;40.97;20.55;;;;;;;4.20;100.00;97298.78;5007852;28;20579;-60
2020/12/24 00:28:25;;;;;;;40.88;22.10;;;;;;;4.19;100.00;97302.63;5008319;28;20030;-60
2020/12/24 00:30:50;;;;;;;36.95;19.75;;;;;;;3.36;100.00;97185.28;5006243;28;20153;-62
2020/12/24 00:33:16;;;;;;;61.13;24.60;;;;;;;4.07;100.00;97277.81;5006068;28;20599;-61
2020/12/24 00:35:41;;;;;;;50.15;26.00;;;;;;;4.08;100.00;97298.59;5007801;28;20037;-60
2020/12/24 00:38:07;;;;;;;41.00;22.60;;;;;;;4.21;100.00;97310.53;5008341;28;20036;-60
2020/12/24 00:40:32;;;;;;;51.03;23.67;;;;;;;4.22;100.00;97325.88;5007968;28;20025;-60
2020/12/24 00:42:57;;;;;;;53.90;27.75;;;;;;;3.70;100.00;97239.28;5007536;28;20056;-61
2020/12/24 00:45:23;;;;;;;40.75;21.42;;;;;;;3.75;100.00;97255.53;5007156;28;20042;-60
2020/12/24 00:47:49;;;;;;;48.75;22.88;;;;;;;4.17;100.00;97299.41;5007647;28;20030;-60
2020/12/24 00:50:14;;;;;;;54.13;25.88;;;;;;;4.16;100.00;97286.81;4991729;28;20027;-60
2020/12/24 00:52:40;;;;;;;53.70;28.58;;;;;;;4.29;100.00;97294.09;4987777;28;20046;-60
2020/12/24 00:55:05;;;;;;;50.83;28.08;;;;;;;3.11;100.00;97210.69;4987729;28;20077;-61
2020/12/24 00:57:31;;;;;;;57.30;30.45;;;;;;;3.98;100.00;97320.84;4987684;28;20034;-62
2020/12/24 00:59:56;;;;;;;85.93;38.95;;;;;;;4.02;100.00;97319.06;4987540;28;20030;-61
2020/12/24 01:02:22;;;;;;;73.80;34.30;;;;;;;4.07;100.00;97321.66;4987450;28;20461;-60
2020/12/24 01:04:47;;;;;;;108.90;45.08;;;;;;;4.17;100.00;97299.41;5003030;28;20389;-61
2020/12/24 01:07:13;;;;;;;153.27;64.82;;;;;;;4.20;100.00;97297.97;5005579;28;20582;-61
2020/12/24 01:09:38;;;;;;;140.63;57.05;;;;;;;4.29;100.00;97307.78;5006924;28;20041;-62
2020/12/24 01:12:04;;;;;;;60.50;29.35;;;;;;;4.34;100.00;97304.06;5005425;28;20121;-62
2020/12/24 01:14:30;;;;;;;98.57;46.55;;;;;;;4.36;100.00;97286.16;5005428;28;20116;-61
2020/12/24 01:16:55;;;;;;;138.30;56.85;;;;;;;4.42;100.00;97293.13;5005130;28;20034;-61
2020/12/24 01:19:21;;;;;;;39.83;20.33;;;;;;;4.08;100.00;97273.94;5006863;28;20037;-61
2020/12/24 01:21:47;;;;;;;45.22;23.23;;;;;;;4.13;100.00;97289.41;5006654;28;20129;-63
2020/12/24 01:24:13;;;;;;;47.03;23.33;;;;;;;4.22;100.00;97285.53;5006584;28;20042;-62
2020/12/24 01:26:45;;;;;;;52.88;24.35;;;;;;;4.24;100.00;97266.84;5006558;28;20034;-62
2020/12/24 01:29:10;;;;;;;50.75;26.17;;;;;;;4.11;100.00;97270.53;5006611;28;20044;-62
2020/12/24 01:31:35;;;;;;;50.70;26.20;;;;;;;3.82;100.00;97221.09;5006527;28;20029;-61
2020/12/24 01:34:01;;;;;;;59.47;29.23;;;;;;;3.54;100.00;97181.41;5006737;28;20477;-62
2020/12/24 01:36:26;;;;;;;43.63;22.25;;;;;;;4.25;100.00;97268.44;5006360;28;20033;-61
2020/12/24 01:38:52;;;;;;;57.35;27.63;;;;;;;4.11;100.00;97273.28;5006575;28;20420;-61
2020/12/24 01:41:17;;;;;;;50.72;25.92;;;;;;;4.34;100.00;97272.00;5006162;28;20034;-61
2020/12/24 01:43:43;;;;;;;42.38;22.98;;;;;;;4.22;100.00;97269.09;5006481;28;20029;-61
2020/12/24 01:46:08;;;;;;;50.53;25.52;;;;;;;4.29;100.00;97263.94;5006279;28;20042;-62
2020/12/24 01:48:33;;;;;;;43.58;22.67;;;;;;;3.98;100.00;97268.75;5006357;28;20034;-62
2020/12/24 01:50:59;;;;;;;45.05;23.88;;;;;;;3.90;100.00;97239.44;5006065;28;20042;-62
2020/12/24 01:53:25;;;;;;;42.83;22.73;;;;;;;3.87;100.00;97256.50;5004674;28;20394;-61
2020/12/24 01:55:51;;;;;;;39.95;21.75;;;;;;;3.95;100.00;97252.97;5006123;28;20069;-62
2020/12/24 01:58:18;;;;;;;38.13;19.17;;;;;;;4.03;100.00;97268.59;5006413;28;20064;-61
2020/12/24 02:00:47;;;;;;;37.10;20.25;;;;;;;3.98;100.00;97257.81;5006320;28;20412;-62
2020/12/24 02:03:14;;;;;;;44.05;21.98;;;;;;;3.85;99.81;97258.78;5000558;28;20038;-61
2020/12/24 02:05:40;;;;;;;41.33;22.38;;;;;;;3.62;100.00;97265.53;5005674;28;20042;-61
2020/12/24 02:08:05;;;;;;;50.35;24.40;;;;;;;3.40;100.00;97230.03;5005929;28;20190;-61
2020/12/24 02:10:31;;;;;;;53.20;24.95;;;;;;;3.55;100.00;97237.81;5005932;28;20121;-62
2020/12/24 02:12:56;;;;;;;56.63;28.50;;;;;;;3.74;100.00;97265.72;5005779;28;20037;-61
2020/12/24 02:15:21;;;;;;;51.53;27.75;;;;;;;3.62;100.00;97273.72;5005719;28;20113;-62
2020/12/24 02:17:48;;;;;;;48.97;25.55;;;;;;;2.94;100.00;97166.88;5004053;28;20512;-61
2020/12/24 02:20:13;;;;;;;52.00;26.88;;;;;;;3.70;100.00;97256.50;5005735;28;20038;-62
2020/12/24 02:22:38;;;;;;;67.85;34.83;;;;;;;3.70;100.00;97266.69;5005335;28;20042;-61
2020/12/24 02:25:05;;;;;;;60.47;30.58;;;;;;;3.72;100.00;97259.75;5005494;28;20041;-62
2020/12/24 02:27:30;;;;;;;75.53;34.40;;;;;;;3.76;100.00;97273.59;5005649;28;20524;-61
2020/12/24 02:29:55;;;;;;;70.93;33.78;;;;;;;3.02;100.00;97146.91;5005514;28;20033;-61
2020/12/24 02:32:21;;;;;;;66.22;32.28;;;;;;;3.63;100.00;97267.16;5003979;28;20038;-61
2020/12/24 02:34:46;;;;;;;57.47;30.70;;;;;;;3.58;100.00;97215.25;5005536;28;20103;-61
2020/12/24 02:37:12;;;;;;;57.58;27.95;;;;;;;3.80;100.00;97260.88;5005509;28;20038;-62
2020/12/24 02:39:38;;;;;;;45.35;23.98;;;;;;;3.72;100.00;97231.53;4321176;28;20004245;-61
2020/12/24 02:42:03;;;;;;;44.47;22.88;;;;;;;3.84;100.00;97273.59;5025403;28;20416;-62
2020/12/24 02:44:29;;;;;;;49.08;25.67;;;;;;;3.59;100.00;97227.81;5023729;28;20045;-61
2020/12/24 02:46:54;;;;;;;47.95;25.10;;;;;;;3.76;100.00;97266.19;5024905;28;20117;-62
2020/12/24 02:49:20;;;;;;;51.67;25.65;;;;;;;3.20;100.00;97167.72;5023518;28;20579;-62
2020/12/24 02:51:45;;;;;;;52.40;26.58;;;;;;;3.79;100.00;97264.75;5023067;28;20046;-62
2020/12/24 02:54:11;;;;;;;59.15;29.88;;;;;;;3.33;100.00;97191.41;5024988;28;20423;-62
2020/12/24 02:56:36;;;;;;;52.60;28.20;;;;;;;2.50;100.00;97041.28;5024418;28;20033;-62
2020/12/24 02:59:01;;;;;;;48.40;22.42;;;;;;;3.81;100.00;97252.31;5024666;28;20036;-61
2020/12/24 03:01:27;;;;;;;34.55;19.38;;;;;;;3.25;100.00;97166.75;5024662;28;20022;-61
2020/12/24 03:03:52;;;;;;;40.47;21.00;;;;;;;3.87;100.00;97253.00;5024370;28;20036;-61
2020/12/24 03:06:18;;;;;;;27.88;13.70;;;;;;;3.87;100.00;97251.03;5022927;28;20556;-61
2020/12/24 03:08:43;;;;;;;59.35;28.77;;;;;;;3.94;100.00;97250.56;5024590;28;20037;-61
2020/12/24 03:11:08;;;;;;;29.13;16.45;;;;;;;3.91;100.00;97235.56;5023192;28;20099;-62
2020/12/24 03:13:34;;;;;;;41.45;18.35;;;;;;;3.94;100.00;97245.06;5022436;28;20029;-61
2020/12/24 03:16:00;;;;;;;27.92;12.57;;;;;;;3.51;100.00;97165.63;5024472;28;20044;-62
2020/12/24 03:18:25;;;;;;;24.90;11.57;;;;;;;3.99;100.00;97243.00;5023050;28;20029;-61
2020/12/24 03:20:50;;;;;;;33.65;16.52;;;;;;;3.38;100.00;97143.91;5024591;28;20045;-62
2020/12/24 03:23:16;;;;;;;31.27;14.65;;;;;;;3.71;100.00;97197.88;5024403;28;20037;-62
2020/12/24 03:25:41;;;;;;;264.77;110.45;;;;;;;3.93;100.00;97214.16;5024060;28;20115;-62
2020/12/24 03:28:07;;;;;;;76.53;36.35;;;;;;;3.93;100.00;97211.41;5024572;28;20463;-62
2020/12/24 03:30:32;;;;;;;34.33;17.10;;;;;;;4.14;100.00;97245.22;5024631;28;20057;-62
2020/12/24 03:32:57;;;;;;;29.13;14.20;;;;;;;4.16;100.00;97242.97;5023202;28;20061;-62
2020/12/24 03:35:23;;;;;;;37.15;17.20;;;;;;;4.15;100.00;97238.63;5024646;28;20056;-62
2020/12/24 03:37:48;;;;;;;37.80;19.40;;;;;;;3.66;100.00;97184.34;5024676;28;20026;-61
2020/12/24 03:40:14;;;;;;;39.88;21.55;;;;;;;3.91;100.00;97224.63;5024057;28;20052;-61
2020/12/24 03:42:40;;;;;;;88.15;43.63;;;;;;;4.05;100.00;97235.41;5024278;28;20075;-61
2020/12/24 03:45:06;;;;;;;37.17;18.70;;;;;;;3.86;100.00;97222.03;5024123;28;20049;-62
2020/12/24 03:47:31;;;;;;;37.78;17.98;;;;;;;3.98;100.00;97243.31;5024338;28;20274;-61
2020/12/24 03:49:56;;;;;;;36.00;16.92;;;;;;;3.99;100.00;97242.19;5022572;28;20488;-61
2020/12/24 03:52:22;;;;;;;29.02;14.23;;;;;;;4.13;100.00;97248.28;5024036;28;20467;-61
2020/12/24 03:54:47;;;;;;;32.60;17.00;;;;;;;3.96;100.00;97216.22;5022636;28;20500;-61
2020/12/24 03:57:13;;;;;;;36.05;18.77;;;;;;;3.68;100.00;97176.63;5024067;28;20041;-60
2020/12/24 03:59:38;;;;;;;39.95;20.92;;;;;;;4.04;100.00;97233.78;5024057;28;20069;-60
2020/12/24 04:02:04;;;;;;;47.28;24.90;;;;;;;4.05;100.00;97251.84;5022401;28;20163;-60
2020/12/24 04:04:29;;;;;;;45.80;25.30;;;;;;;3.86;100.00;97226.69;5022299;28;20045;-62
2020/12/24 04:06:55;;;;;;;41.55;23.77;;;;;;;3.25;100.00;97123.78;5013045;28;20030;-60
2020/12/24 04:09:20;;;;;;;46.00;22.52;;;;;;;4.09;100.00;97248.16;5004176;28;20394;-61
2020/12/24 04:11:45;;;;;;;58.65;27.15;;;;;;;3.44;100.00;97148.09;5004154;28;20132;-60
2020/12/24 04:14:11;;;;;;;57.88;28.13;;;;;;;3.77;100.00;97223.97;5004259;28;20046;-59
2020/12/24 04:16:36;;;;;;;51.22;27.60;;;;;;;3.88;100.00;97247.19;5003924;28;20026;-60
2020/12/24 04:19:01;;;;;;;52.67;26.10;;;;;;;3.80;100.00;97239.75;5002844;28;20100;-60
2020/12/24 04:21:27;;;;;;;49.95;24.10;;;;;;;3.72;100.00;97237.81;5004430;28;20579;-61
2020/12/24 04:23:52;;;;;;;48.90;24.83;;;;;;;3.83;100.00;97239.13;5004335;28;20643;-61
2020/12/24 04:26:21;;;;;;;73.40;37.85;;;;;;;3.55;100.00;97243.28;5004483;28;20022;-61
2020/12/24 04:28:47;;;;;;;69.63;37.45;;;;;;;3.56;100.00;97239.41;5007895;28;20033;-61
2020/12/24 04:31:13;;;;;;;70.75;38.20;;;;;;;3.67;100.00;97235.25;5007974;28;20076;-61
2020/12/24 04:33:39;;;;;;;59.47;33.20;;;;;;;3.67;100.00;97229.75;5007753;28;20029;-61
2020/12/24 04:36:05;;;;;;;55.97;30.77;;;;;;;3.28;100.00;97166.91;5006260;28;20034;-62
2020/12/24 04:38:31;;;;;;;53.15;31.55;;;;;;;3.29;100.00;97174.00;5007575;28;20573;-61
2020/12/24 04:40:58;;;;;;;53.22;27.13;;;;;;;3.11;100.00;97134.06;5007688;28;20038;-61
2020/12/24 04:43:28;;;;;;;58.45;31.50;;;;;;;3.73;99.14;97227.69;5007399;28;20500;-61
2020/12/24 04:45:55;;;;;;;57.10;29.90;;;;;;;3.20;97.82;97175.09;5007632;28;20574;-61
2020/12/24 04:48:21;;;;;;;67.68;34.70;;;;;;;3.49;98.29;97222.69;5007414;28;20113;-63
2020/12/24 04:50:51;;;;;;;71.00;35.03;;;;;;;3.30;100.00;97224.91;5007636;28;20042;-61
2020/12/24 04:53:18;;;;;;;81.88;42.17;;;;;;;3.27;100.00;97241.97;5007417;28;20048;-60
2020/12/24 04:55:43;;;;;;;71.35;32.58;;;;;;;3.28;100.00;97221.66;5005711;28;20045;-61
2020/12/24 04:58:10;;;;;;;68.03;32.67;;;;;;;3.33;100.00;97232.47;5007416;28;20535;-62
2020/12/24 05:00:36;;;;;;;71.35;37.72;;;;;;;3.40;100.00;97227.31;5005715;28;20046;-61
2020/12/24 05:03:11;;;;;;;76.72;38.03;;;;;;;2.87;100.00;97200.16;5006033;28;20072;-62
2020/12/24 05:05:38;;;;;;;61.97;32.90;;;;;;;3.26;100.00;97228.59;5021362;28;20139;-61
2020/12/24 05:08:05;;;;;;;63.65;32.60;;;;;;;3.30;100.00;97229.56;5026963;28;20051;-61
2020/12/24 05:10:32;;;;;;;65.68;31.05;;;;;;;3.18;100.00;97189.13;5025075;28;20048;-61
2020/12/24 05:12:58;;;;;;;60.15;28.73;;;;;;;3.21;100.00;97220.53;5025042;28;20515;-60
2020/12/24 05:15:29;;;;;;;55.38;26.48;;;;;;;2.74;100.00;97208.47;5025055;28;20034;-61
2020/12/24 05:18:11;;;;;;;57.50;28.42;;;;;;;2.92;100.00;97234.78;5026661;28;20052;-60
2020/12/24 05:20:41;;;;;;;58.25;28.55;;;;;;;2.97;100.00;97253.78;5024561;28;20034;-59
2020/12/24 05:23:13;;;;;;;54.47;26.23;;;;;;;2.57;100.00;97167.38;5026659;28;20108;-59
2020/12/24 05:25:39;;;;;;;53.88;26.60;;;;;;;3.02;100.00;97234.47;5026032;28;20098;-60
2020/12/24 05:28:05;;;;;;;59.70;32.33;;;;;;;2.57;100.00;97178.31;5026306;28;20045;-60
2020/12/24 05:30:32;;;;;;;53.40;28.10;;;;;;;2.98;100.00;97223.38;5026550;28;20052;-60
2020/12/24 05:32:58;;;;;;;51.25;26.50;;;;;;;2.59;100.00;97170.63;5026543;28;20040;-60
2020/12/24 05:35:25;;;;;;;51.88;24.25;;;;;;;3.10;100.00;97225.47;5026576;28;20416;-60
2020/12/24 05:37:52;;;;;;;58.95;26.98;;;;;;;3.16;100.00;97224.22;5023730;28;20571;-60
2020/12/24 05:40:26;;;;;;;71.85;36.42;;;;;;;2.96;100.00;97227.53;5024772;28;20442;-60
2020/12/24 05:42:57;;;;;;;53.80;26.35;;;;;;;2.72;100.00;97229.84;5026511;28;20033;-60
2020/12/24 05:45:26;;;;;;;54.42;24.67;;;;;;;2.62;100.00;97214.56;5024707;28;20409;-60
2020/12/24 05:48:12;;;;;;;68.43;31.00;;;;;;;2.94;100.00;97246.22;5026149;28;20037;-60
2020/12/24 05:50:39;;;;;;;70.65;32.70;;;;;;;3.00;100.00;97220.31;5026070;28;20112;-60
2020/12/24 05:53:19;;;;;;;71.50;34.17;;;;;;;3.02;100.00;97223.50;5025708;28;20064;-60
2020/12/24 05:55:44;;;;;;;125.10;49.83;;;;;;;3.16;100.00;97229.69;5026013;28;20042;-61
2020/12/24 05:58:10;;;;;;;155.18;69.47;;;;;;;1.05;100.00;96891.41;5024268;28;20312;-60
2020/12/24 06:00:42;;;;;;;183.63;84.72;;;;;;;3.23;100.00;97224.56;5025192;28;20061;-61
2020/12/24 06:03:12;;;;;;;163.18;74.32;;;;;;;3.29;100.00;97228.75;5024020;28;20482;-60
2020/12/24 06:06:08;;;;;;;131.48;59.75;;;;;;;3.28;100.00;97227.13;5023906;28;20555;-61
2020/12/24 06:08:34;;;;;;;75.50;36.83;;;;;;;3.32;100.00;97217.16;5025038;28;20045;-60
2020/12/24 06:11:10;;;;;;;101.57;49.92;;;;;;;3.35;100.00;97216.50;5020738;28;20420;-61
2020/12/24 06:13:49;;;;;;;88.30;43.00;;;;;;;3.02;100.00;97179.75;5005756;28;20045;-61
2020/12/24 06:16:15;;;;;;;56.85;30.70;;;;;;;3.33;100.00;97218.78;5003954;28;20050;-61
2020/12/24 06:18:45;;;;;;;56.85;29.00;;;;;;;3.46;100.00;97223.31;5004558;28;20040;-61
2020/12/24 06:21:15;;;;;;;47.55;24.83;;;;;;;3.30;100.00;97175.63;5006030;28;20113;-61
2020/12/24 06:23:45;;;;;;;42.35;23.63;;;;;;;3.26;100.00;97173.84;5005642;28;20096;-61
2020/12/24 06:26:12;;;;;;;44.88;22.40;;;;;;;3.36;100.00;97209.94;5004005;28;20034;-61
2020/12/24 06:28:40;;;;;;;45.00;22.27;;;;;;;3.62;100.00;97232.66;5004023;28;20465;-61
2020/12/24 06:31:06;;;;;;;46.38;23.48;;;;;;;3.63;100.00;97223.34;5010172;28;20052;-60
2020/12/24 06:33:31;;;;;;;52.42;25.73;;;;;;;3.65;100.00;97226.53;5020618;28;20488;-61
2020/12/24 06:35:57;;;;;;;55.10;31.13;;;;;;;1.63;100.00;96912.22;5024680;28;20483;-61
2020/12/24 06:38:45;;;;;;;62.72;36.08;;;;;;;3.58;100.00;97204.31;5023878;28;20029;-70
2020/12/24 06:41:28;;;;;;;64.93;36.05;;;;;;;3.66;100.00;97217.22;5024472;28;20037;-63
2020/12/24 06:43:54;;;;;;;57.95;33.50;;;;;;;2.95;100.00;97223.19;5024328;28;20037;-62
2020/12/24 06:46:19;;;;;;;60.28;35.97;;;;;;;3.79;99.05;97240.91;5024821;28;20038;-62
2020/12/24 06:49:04;;;;;;;71.68;35.45;;;;;;;3.05;99.15;97143.56;5023302;28;20060;-62
2020/12/24 06:51:51;;;;;;;104.55;47.78;;;;;;;3.80;99.80;97214.28;5024543;28;20045;-64
2020/12/24 06:54:24;;;;;;;142.10;61.30;;;;;;;4.04;99.83;97245.56;5039524;28;20053;-63
2020/12/24 06:56:50;;;;;;;119.57;53.75;;;;;;;4.07;99.86;97217.50;5024299;28;20508;-64
2020/12/24 06:59:21;;;;;;;110.13;49.50;;;;;;;4.22;99.52;97208.78;5024556;28;20067;-66
2020/12/24 07:02:04;;;;;;;123.00;61.35;;;;;;;4.49;99.04;97240.47;5024341;28;20030;-61
2020/12/24 07:04:37;;;;;;;125.77;66.47;;;;;;;4.56;97.62;97241.63;5023070;28;20049;-61
2020/12/24 07:07:03;;;;;;;121.25;64.38;;;;;;;4.59;97.98;97212.72;5016464;28;20826;-61
2020/12/24 07:09:28;;;;;;;122.90;66.47;;;;;;;4.93;99.01;97244.72;5015921;28;20189;-63
2020/12/24 07:11:54;;;;;;;126.40;69.43;;;;;;;4.38;99.32;97163.25;5024049;28;20033;-65
2020/12/24 07:14:27;;;;;;;171.85;95.13;;;;;;;5.45;97.22;97235.09;5022771;28;20522;-63
2020/12/24 07:16:55;;;;;;;107.28;56.30;;;;;;;5.08;95.26;97216.69;5024208;28;20087;-63
2020/12/24 07:19:22;;;;;;;109.70;56.08;;;;;;;5.44;95.39;97238.94;5022640;28;20084;-62
2020/12/24 07:21:52;;;;;;;107.65;56.10;;;;;;;5.16;95.24;97171.94;5022167;28;20033;-65
2020/12/24 07:24:27;;;;;;;53.45;30.95;;;;;;;4.46;95.48;97093.88;5024122;28;20095;-62
2020/12/24 07:27:00;;;;;;;48.17;26.80;;;;;;;5.25;95.42;97194.66;5024278;28;20088;-62
2020/12/24 07:29:26;;;;;;;;;;;;;;;5.86;94.91;97232.41;5024796;28;20074;-62
2020/12/24 07:31:54;;;;;;;49.88;25.67;;;;;;;6.24;94.37;97230.31;5022273;28;20403;-62
2020/12/24 07:34:22;;;;;;;26.30;15.40;;;;;;;6.14;92.55;97241.69;5024346;28;20129;-64
2020/12/24 07:36:47;;;;;;;23.80;14.52;;;;;;;4.96;96.10;97157.03;5018428;28;20061;-64
2020/12/24 07:39:13;;;;;;;28.05;16.58;;;;;;;5.74;94.98;97233.09;5014849;28;20121;-62
2020/12/24 07:41:41;;;;;;;28.98;15.70;;;;;;;5.53;95.17;97231.47;5021703;28;20385;-63
2020/12/24 07:44:11;;;;;;;30.05;16.35;;;;;;;5.06;96.58;97166.84;5012962;28;20057;-65
2020/12/24 07:46:37;;;;;;;29.85;17.10;;;;;;;4.84;96.14;97087.53;5021950;28;20410;-66
2020/12/24 07:49:04;;;;;;;36.90;20.80;;;;;;;6.09;95.45;97250.16;5023631;28;20026;-67
2020/12/24 07:51:30;;;;;;;31.60;19.38;;;;;;;6.26;92.95;97236.25;5016395;28;20050;-66
2020/12/24 07:54:12;;;;;;;40.72;22.98;;;;;;;6.43;91.89;97238.03;5024321;28;20040;-65
2020/12/24 07:56:45;;;;;;;31.88;19.83;;;;;;;5.94;91.72;97199.31;5023497;28;20061;-64
2020/12/24 07:59:11;;;;;;;39.25;20.23;;;;;;;6.54;92.63;97226.28;5019031;28;20057;-68
2020/12/24 08:01:37;;;;;;;43.28;22.67;;;;;;;6.72;92.81;97230.44;5006650;28;20087;-67
2020/12/24 08:04:04;;;;;;;47.63;25.73;;;;;;;6.19;92.40;97200.25;5024416;28;20041;-65
2020/12/24 08:06:31;;;;;;;73.38;40.92;;;;;;;7.05;91.66;97211.91;5026593;28;20022;-68
2020/12/24 08:09:18;;;;;;;120.25;73.43;;;;;;;7.14;89.61;97220.88;5027447;28;20032;-64
2020/12/24 08:11:57;;;;;;;105.30;59.63;;;;;;;7.44;89.66;97213.97;5027210;28;20104;-67
2020/12/24 08:14:27;;;;;;;99.75;63.42;;;;;;;7.56;89.53;97200.19;5027235;28;20033;-64
2020/12/24 08:17:07;;;;;;;94.13;56.47;;;;;;;6.67;88.31;97054.50;5027135;28;20405;-66
2020/12/24 08:19:53;;;;;;;103.53;64.03;;;;;;;7.93;87.71;97191.81;5020219;28;20030;-65
2020/12/24 08:22:29;;;;;;;117.93;68.65;;;;;;;8.12;86.37;97201.06;5021781;28;20033;-63
2020/12/24 08:24:55;;;;;;;115.45;70.95;;;;;;;8.09;86.43;97190.75;5027052;28;20037;-67
2020/12/24 08:27:21;;;;;;;152.05;88.45;;;;;;;8.27;86.66;97202.28;5016187;28;20538;-68
2020/12/24 08:29:48;;;;;;;192.25;104.47;;;;;;;8.17;86.30;97142.06;5026471;28;20037;-68
2020/12/24 08:32:15;;;;;;;235.27;123.35;;;;;;;8.32;85.01;97157.88;5019564;28;20133;-67
2020/12/24 08:34:40;;;;;;;175.18;100.05;;;;;;;8.78;84.28;97195.81;5012519;28;20049;-66
2020/12/24 08:37:05;;;;;;;144.77;84.85;;;;;;;8.66;84.04;97152.50;5021963;28;20025;-65
2020/12/24 08:39:31;;;;;;;124.70;72.22;;;;;;;9.09;83.67;97190.28;5011458;28;20041;-67
2020/12/24 08:41:58;;;;;;;135.38;76.65;;;;;;;9.00;83.23;97164.81;4988737;28;20049;-66
2020/12/24 08:44:24;;;;;;;152.05;87.40;;;;;;;9.38;82.75;97202.84;5004088;28;20041;-67
2020/12/24 08:47:05;;;;;;;181.02;108.45;;;;;;;9.07;82.38;97176.03;5005148;28;20047;-64
2020/12/24 08:49:31;;;;;;;168.50;105.07;;;;;;;8.95;81.78;97107.06;5005269;28;20033;-65
2020/12/24 08:52:21;;;;;;;164.57;100.63;;;;;;;9.55;82.76;97185.88;5003445;28;20056;-67
2020/12/24 08:55:05;;;;;;;146.32;92.10;;;;;;;9.17;82.66;97081.53;5005447;28;20053;-68
2020/12/24 08:57:31;;;;;;;123.88;78.25;;;;;;;9.36;82.35;97109.22;5002486;28;20045;-67
2020/12/24 09:00:01;;;;;;;107.88;67.50;;;;;;;10.02;81.95;97175.47;5004166;28;20516;-65
2020/12/24 09:02:33;;;;;;;103.47;61.90;;;;;;;9.31;81.36;97043.16;4993988;28;20567;-64
2020/12/24 09:05:01;;;;;;;83.57;54.40;;;;;;;10.08;81.21;97144.41;4989640;28;20322;-67
2020/12/24 09:07:35;;;;;;;61.15;41.58;;;;;;;10.47;81.39;97162.59;5006028;28;20291;-65
2020/12/24 09:10:02;;;;;;;57.95;36.95;;;;;;;9.95;81.53;97068.22;5006190;28;20064;-66
2020/12/24 09:12:28;;;;;;;36.22;24.60;;;;;;;9.79;81.29;97070.25;5005024;28;20044;-64
2020/12/24 09:15:12;;;;;;;32.45;21.10;;;;;;;10.07;81.50;97126.19;5004974;28;20150;-65
2020/12/24 09:17:51;;;;;;;23.95;15.52;;;;;;;10.12;81.64;97161.88;5007397;28;20033;-67
2020/12/24 09:20:22;;;;;;;23.05;13.82;;;;;;;10.14;82.00;97170.63;5008118;28;20034;-68
2020/12/24 09:22:53;;;;;;;20.50;13.32;;;;;;;8.92;81.95;96987.03;5009382;28;20172;-66
2020/12/24 09:25:36;;;;;;;19.58;11.18;;;;;;;10.04;82.69;97150.97;5008379;28;20117;-69
2020/12/24 09:28:04;;;;;;;17.65;9.88;;;;;;;9.36;81.84;97012.47;5009267;28;20033;-63
2020/12/24 09:30:30;;;;;;;18.70;11.13;;;;;;;9.75;82.26;97057.53;5005699;28;20041;-66
2020/12/24 09:33:00;;;;;;;16.60;10.85;;;;;;;10.51;82.22;97146.81;5006730;28;20029;-70
2020/12/24 09:35:27;;;;;;;15.55;10.48;;;;;;;10.10;84.68;97131.00;5003327;28;20041;-62
2020/12/24 09:37:54;;;;;;;17.38;10.52;;;;;;;10.41;83.63;97086.53;4989761;28;20131;-65
2020/12/24 09:40:20;;;;;;;13.85;9.40;;;;;;;10.84;80.42;97110.22;4989253;28;20041;-65
2020/12/24 09:42:46;;;;;;;19.45;10.70;;;;;;;10.84;79.72;97020.75;4994541;28;20489;-62
2020/12/24 09:45:12;;;;;;;18.85;10.32;;;;;;;10.62;77.97;97003.78;5008918;28;20736;-62
2020/12/24 09:47:37;;;;;;;27.48;15.55;;;;;;;11.67;76.85;97045.31;5008186;28;20025;-63
2020/12/24 09:50:04;;;;;;;28.73;16.45;;;;;;;12.66;74.87;97122.25;5006543;28;20051;-62
2020/12/24 09:52:30;;;;;;;12.90;9.20;;;;;;;12.17;74.41;97083.63;5007988;28;20522;-65
2020/12/24 09:54:55;;;;;;;20.23;12.55;;;;;;;12.10;74.94;97055.75;5006998;28;20045;-66
2020/12/24 09:57:20;;;;;;;25.20;15.82;;;;;;;13.08;74.17;97112.34;5006658;28;20493;-63
2020/12/24 09:59:46;;;;;;;19.58;13.35;;;;;;;12.80;72.04;97075.94;5007128;28;20033;-68
2020/12/24 10:02:11;;;;;;;15.45;10.95;;;;;;;11.68;75.05;97066.38;5006690;28;20030;-64
2020/12/24 10:04:37;;;;;;;20.02;13.77;;;;;;;12.78;74.37;97164.47;5007198;28;20072;-62
2020/12/24 10:07:02;;;;;;;19.77;11.85;;;;;;;12.31;75.99;97094.06;5005699;28;20036;-62
2020/12/24 10:09:28;;;;;;;18.48;11.82;;;;;;;11.20;78.65;97051.41;5006454;28;20574;-69
2020/12/24 10:11:53;;;;;;;29.17;16.42;;;;;;;12.28;78.29;97078.19;4993864;28;20030;-62
2020/12/24 10:14:20;;;;;;;24.63;15.63;;;;;;;12.23;76.96;97026.56;4989851;28;20033;-64
2020/12/24 10:16:45;;;;;;;32.83;22.20;;;;;;;12.75;77.32;97070.72;5005588;28;20033;-63
2020/12/24 10:19:11;;;;;;;21.70;14.38;;;;;;;12.41;75.22;97015.63;5007640;28;20087;-62
2020/12/24 10:21:39;;;;;;;16.83;12.50;;;;;;;12.32;74.33;96973.44;5007659;28;20092;-64
2020/12/24 10:24:04;;;;;;;19.23;12.50;;;;;;;12.22;73.81;97008.28;5007457;28;20599;-64
2020/12/24 10:26:29;;;;;;;17.38;12.07;;;;;;;11.87;76.49;96974.63;5006203;28;20471;-67
2020/12/24 10:28:55;;;;;;;22.17;12.80;;;;;;;12.35;76.16;96990.16;4996461;28;20045;-62
2020/12/24 10:31:20;;;;;;;15.75;10.27;;;;;;;12.32;76.23;97049.25;5003228;28;20033;-62
2020/12/24 10:33:46;;;;;;;15.05;8.65;;;;;;;10.23;75.73;96747.69;5006566;28;20033;-62
2020/12/24 10:36:11;;;;;;;18.30;11.82;;;;;;;12.63;76.56;97057.09;5005089;28;20037;-64
2020/12/24 10:38:36;;;;;;;18.02;11.25;;;;;;;12.98;75.24;97040.72;5006335;28;20479;-63
2020/12/24 10:41:02;;;;;;;12.18;8.20;;;;;;;13.03;72.55;97026.47;5007191;28;20033;-62
2020/12/24 10:43:28;;;;;;;9.57;6.43;;;;;;;12.55;74.48;97038.75;5006245;28;20577;-61
2020/12/24 10:45:53;;;;;;;11.45;5.25;;;;;;;11.53;76.21;97014.59;5006301;28;20060;-63
2020/12/24 10:48:19;;;;;;;9.30;5.43;;;;;;;12.53;77.14;97030.03;5007156;28;20053;-63
2020/12/24 10:50:44;;;;;;;8.13;5.07;;;;;;;12.03;76.53;96973.19;4990340;28;20361;-63
2020/12/24 10:53:10;;;;;;;11.07;5.53;;;;;;;12.67;75.01;97013.47;5000868;28;20060;-65
2020/12/24 10:55:35;;;;;;;8.63;5.57;;;;;;;12.52;73.25;96955.38;5006607;28;20050;-63
2020/12/24 10:58:01;;;;;;;9.55;5.53;;;;;;;12.32;73.39;97024.25;5005215;28;20545;-64
2020/12/24 11:00:26;;;;;;;10.40;6.25;;;;;;;12.09;75.19;96990.31;5004337;28;20033;-64
2020/12/24 11:02:51;;;;;;;11.48;6.47;;;;;;;11.87;78.21;97030.13;5007290;28;20022;-64
2020/12/24 11:05:17;;;;;;;9.52;6.88;;;;;;;11.40;79.16;96941.13;5006399;28;20048;-65
2020/12/24 11:07:42;;;;;;;13.98;7.78;;;;;;;11.43;80.12;96943.16;5007335;28;20036;-61
2020/12/24 11:10:08;;;;;;;13.85;7.93;;;;;;;11.87;78.88;96996.81;5005904;28;20107;-61
2020/12/24 11:12:33;;;;;;;16.77;10.05;;;;;;;11.94;78.75;96991.34;5007242;28;20033;-61
2020/12/24 11:14:58;;;;;;;15.88;11.15;;;;;;;12.34;77.85;96994.13;5006427;28;20041;-61
2020/12/24 11:17:24;;;;;;;13.63;9.52;;;;;;;12.19;75.25;96972.94;5006934;28;20496;-60
2020/12/24 11:19:49;;;;;;;14.48;9.38;;;;;;;12.58;72.78;96988.00;5006997;28;20038;-63
2020/12/24 11:22:15;;;;;;;13.82;8.57;;;;;;;12.48;70.77;96944.25;5008021;28;20105;-63